»·PEaware :: N291VH KSNA-KEMT

N291VH :: KSNA-KEMT

FLIGHT INFORMATION

Flight Status: Arrived
Operator: Privately registered:
United States
More flights under this callsign
Pilot: Peter B. (26628)
Aircraft: ROBIN DR-400
(DR40)
More flights by this aircraft type
Origin: KSNA John Wayne-Orange Co
United States
Destination: KEMT El Monte
United States
More flights between these airports :: More routes between these airports
Route: SLI V8 POXKU V363 POM
File this flight plan on PilotEdge
Remarks: I 4 Practise
Altitude:
(Current/Filed)
5,000ft
Speed:
(Current/Filed)
110kts
Departed: 14-Jan-20 05:10 PM
Arrived: 14-Jan-20 05:40 PM
Distance/Time
Traveled:
26nm/0:30
Distance/Time
To Go:
Arrived

Flight Plot

Page will automatically refresh every two minutes.


Map Options




Map Legend


Flown Route
Filed Route
Departure Airport
Arrival Airport
Navaid (VOR, NDB)
Fix

Horizontal Profiles

Position Reports

Time Latitude Longitude Heading Altitude Ground
Speed
14-Jan-20 16:41 33.672637 -117.872936 29 59ft 0kts
14-Jan-20 16:42 33.672637 -117.872936 29 59ft 0kts
14-Jan-20 16:43 33.672637 -117.872936 29 59ft 0kts
14-Jan-20 16:44 33.672637 -117.872936 29 59ft 0kts
14-Jan-20 16:45 33.672637 -117.872936 29 59ft 0kts
14-Jan-20 16:46 33.672637 -117.872936 29 59ft 0kts
14-Jan-20 16:47 33.672637 -117.872936 29 59ft 0kts
14-Jan-20 16:48 33.672637 -117.872936 29 59ft 0kts
14-Jan-20 16:49 33.672637 -117.872936 28 59ft 0kts
14-Jan-20 16:50 33.672637 -117.872936 28 59ft 0kts
14-Jan-20 16:51 33.672637 -117.872936 28 59ft 0kts
14-Jan-20 16:52 33.672637 -117.872936 29 59ft 0kts
14-Jan-20 16:53 33.672637 -117.872936 28 59ft 0kts
14-Jan-20 16:54 33.672637 -117.872936 28 59ft 0kts
14-Jan-20 16:55 33.672637 -117.872936 29 59ft 0kts
14-Jan-20 16:56 33.672637 -117.872936 28 59ft 0kts
14-Jan-20 16:57 33.672637 -117.872936 29 59ft 0kts
14-Jan-20 16:58 33.672637 -117.872936 29 59ft 0kts
14-Jan-20 16:59 33.672635 -117.872257 27 59ft 5kts
14-Jan-20 17:00 33.674940 -117.870809 27 59ft 11kts
14-Jan-20 17:01 33.678007 -117.868854 26 59ft 12kts
14-Jan-20 17:02 33.681134 -117.867051 41 59ft 11kts
14-Jan-20 17:03 33.681224 -117.866452 116 59ft 0kts
14-Jan-20 17:04 33.681224 -117.866452 116 59ft 0kts
14-Jan-20 17:05 33.681224 -117.866452 116 59ft 0kts
14-Jan-20 17:06 33.681224 -117.866452 116 59ft 0kts
14-Jan-20 17:07 33.681224 -117.866452 116 59ft 0kts
14-Jan-20 17:08 33.680800 -117.865729 162 59ft 8kts
14-Jan-20 17:09 33.664558 -117.875378 215 849ft 89kts
14-Jan-20 17:10 33.648236 -117.898996 231 2004ft 104kts
14-Jan-20 17:11 33.627458 -117.931259 255 2013ft 130kts
14-Jan-20 17:12 33.628138 -117.966909 300 3194ft 99kts
14-Jan-20 17:13 33.648320 -117.983541 357 4485ft 100kts
14-Jan-20 17:14 33.678758 -117.985650 351 5020ft 125kts
14-Jan-20 17:15 33.714197 -117.988488 10 5015ft 132kts
14-Jan-20 17:16 33.743294 -118.011612 317 5016ft 125kts
14-Jan-20 17:17 33.768854 -118.038988 315 5018ft 122kts
14-Jan-20 17:18 33.793971 -118.032356 90 5012ft 133kts
14-Jan-20 17:19 33.800589 -117.989295 72 5018ft 130kts
14-Jan-20 17:20 33.811148 -117.947591 71 5018ft 130kts
14-Jan-20 17:21 33.821895 -117.905972 71 5018ft 130kts
14-Jan-20 17:22 33.832693 -117.864152 71 5018ft 131kts
14-Jan-20 17:23 33.843455 -117.822436 71 5018ft 130kts
14-Jan-20 17:24 33.858548 -117.784685 13 5017ft 126kts
14-Jan-20 17:25 33.894093 -117.783345 356 5018ft 129kts
14-Jan-20 17:26 33.929622 -117.783981 355 5015ft 120kts
14-Jan-20 17:27 33.962256 -117.784674 355 5018ft 117kts
14-Jan-20 17:28 33.995692 -117.785390 355 5020ft 123kts
14-Jan-20 17:29 34.030158 -117.786103 355 5018ft 125kts
14-Jan-20 17:30 34.065119 -117.786844 355 5018ft 126kts
14-Jan-20 17:31 34.078771 -117.817242 274 4548ft 116kts
14-Jan-20 17:32 34.080469 -117.855244 271 3422ft 109kts
14-Jan-20 17:33 34.081549 -117.889359 271 3021ft 107kts
14-Jan-20 17:34 34.082700 -117.926437 271 2734ft 110kts
14-Jan-20 17:35 34.083698 -117.959143 271 2615ft 88kts
14-Jan-20 17:36 34.084723 -117.993298 286 2010ft 122kts
14-Jan-20 17:37 34.105202 -118.012314 291 1052ft 84kts
14-Jan-20 17:38 34.092451 -118.031143 205 366ft 83kts
14-Jan-20 17:39 34.085470 -118.034796 121 295ft 0kts
14-Jan-20 17:40 34.086401 -118.033933 87 295ft 7kts
14-Jan-20 17:41 34.085675 -118.033143 208 295ft 0kts
14-Jan-20 17:42 34.085675 -118.033143 208 295ft 0kts

Navigation Log

Ident Type
Flight plan parsing failed, navigation log unavailable